Search for airport 
image banner adimage banner adimage banner ad
image banner ad

NV04 - Marys River Ranch

Located in Deeth, United States

ICAO - NV04, IATA -

Data provided by Airmate  

General information

Coordinates: N41°18'59" W115°15'0"
Elevation is 5600 feet MSL.
Magnetic variation is 16° East
View others Airports in Nevada

Operational data

Special qualification required
Current time UTC:
Current local time:
Weather at : KEKO - Elko Rgnl ( 71 km )
METAR: KEKO 131056Z AUTO 00000KT 10SM CLR 11/M01 A3002 RMK AO2 SLP114 T01061006
TAF: KEKO 130520Z 1306/1406 VRB06KT P6SM FEW200 FM131900 20007G17KT P6SM SKC FM140300 21005KT P6SM SKC
View NOTAMs / SUP AIP / TFR affecting this airport [VIEW]
Communications frequencies: [VIEW]

Runways:

RWY identifierQFULength (ft)Width (ft)SurfaceLDA (ft)
02248080EARTH
20248080EARTH
06112060EARTH
24112060EARTH
1488060EARTH
3288060EARTH

Airport contact information

Address: Deeth United States

Satellite view of NV04